sensor_id;sensor_type;location;lat;lon;timestamp;pressure;altitude;pressure_sealevel;temperature;humidity
41654;BME280;68687;52.030;7.110;2023-06-10T00:02:04;100825.72;;;19.83;52.22
41654;BME280;68687;52.030;7.110;2023-06-10T00:04:29;100825.50;;;19.73;52.63
41654;BME280;68687;52.030;7.110;2023-06-10T00:06:54;100833.28;;;19.81;52.73
41654;BME280;68687;52.030;7.110;2023-06-10T00:09:20;100833.41;;;19.63;53.02
41654;BME280;68687;52.030;7.110;2023-06-10T00:11:47;100819.69;;;19.58;53.42
41654;BME280;68687;52.030;7.110;2023-06-10T00:14:12;100830.69;;;19.63;53.67
41654;BME280;68687;52.030;7.110;2023-06-10T00:16:37;100818.72;;;19.40;54.13
41654;BME280;68687;52.030;7.110;2023-06-10T00:19:04;100825.72;;;19.48;53.98
41654;BME280;68687;52.030;7.110;2023-06-10T00:21:31;100826.66;;;19.42;54.15
41654;BME280;68687;52.030;7.110;2023-06-10T00:24:04;100825.47;;;19.38;54.44
41654;BME280;68687;52.030;7.110;2023-06-10T00:26:30;100818.69;;;19.17;54.81
41654;BME280;68687;52.030;7.110;2023-06-10T00:28:56;100812.56;;;19.10;55.46
41654;BME280;68687;52.030;7.110;2023-06-10T00:31:21;100817.53;;;19.13;55.53
41654;BME280;68687;52.030;7.110;2023-06-10T00:33:46;100814.56;;;19.03;56.04
41654;BME280;68687;52.030;7.110;2023-06-10T00:36:11;100817.53;;;19.13;55.52
41654;BME280;68687;52.030;7.110;2023-06-10T00:38:37;100817.41;;;18.96;56.01
41654;BME280;68687;52.030;7.110;2023-06-10T00:41:02;100818.81;;;18.99;56.11
41654;BME280;68687;52.030;7.110;2023-06-10T00:43:27;100817.53;;;19.01;56.14
41654;BME280;68687;52.030;7.110;2023-06-10T00:45:53;100823.78;;;19.02;56.38
41654;BME280;68687;52.030;7.110;2023-06-10T00:48:18;100824.44;;;18.86;56.89
41654;BME280;68687;52.030;7.110;2023-06-10T00:50:46;100829.19;;;18.78;57.08
41654;BME280;68687;52.030;7.110;2023-06-10T00:53:12;100829.66;;;18.75;57.15
41654;BME280;68687;52.030;7.110;2023-06-10T00:55:37;100834.59;;;18.67;57.76
41654;BME280;68687;52.030;7.110;2023-06-10T00:58:03;100831.09;;;18.60;57.98
41654;BME280;68687;52.030;7.110;2023-06-10T01:00:29;100822.56;;;18.56;58.18
41654;BME280;68687;52.030;7.110;2023-06-10T01:02:54;100834.00;;;18.65;57.66
41654;BME280;68687;52.030;7.110;2023-06-10T01:05:20;100830.25;;;18.59;58.34
41654;BME280;68687;52.030;7.110;2023-06-10T01:08:09;100832.84;;;18.54;58.34
41654;BME280;68687;52.030;7.110;2023-06-10T01:11:12;100833.31;;;18.51;58.46
41654;BME280;68687;52.030;7.110;2023-06-10T01:13:41;100835.56;;;18.54;58.65
41654;BME280;68687;52.030;7.110;2023-06-10T01:16:06;100829.41;;;18.47;58.96
41654;BME280;68687;52.030;7.110;2023-06-10T01:18:32;100840.41;;;18.52;58.93
41654;BME280;68687;52.030;7.110;2023-06-10T01:20:58;100836.38;;;18.43;59.22
41654;BME280;68687;52.030;7.110;2023-06-10T01:23:23;100841.66;;;18.38;58.81
41654;BME280;68687;52.030;7.110;2023-06-10T01:26:10;100843.78;;;18.36;59.28
41654;BME280;68687;52.030;7.110;2023-06-10T01:28:42;100839.25;;;18.30;60.01
41654;BME280;68687;52.030;7.110;2023-06-10T01:33:39;100843.09;;;18.22;60.12
41654;BME280;68687;52.030;7.110;2023-06-10T01:36:06;100839.09;;;18.25;60.19
41654;BME280;68687;52.030;7.110;2023-06-10T01:38:35;100841.09;;;18.17;60.48
41654;BME280;68687;52.030;7.110;2023-06-10T01:41:03;100844.03;;;18.16;60.63
41654;BME280;68687;52.030;7.110;2023-06-10T01:43:28;100842.47;;;18.08;60.94
41654;BME280;68687;52.030;7.110;2023-06-10T01:45:53;100845.59;;;18.05;60.70
41654;BME280;68687;52.030;7.110;2023-06-10T01:48:19;100839.13;;;18.06;61.04
41654;BME280;68687;52.030;7.110;2023-06-10T01:50:45;100837.78;;;17.97;61.68
41654;BME280;68687;52.030;7.110;2023-06-10T01:53:10;100840.06;;;17.82;62.16
41654;BME280;68687;52.030;7.110;2023-06-10T01:55:35;100833.94;;;17.86;61.70
41654;BME280;68687;52.030;7.110;2023-06-10T01:58:00;100841.72;;;17.83;61.99
41654;BME280;68687;52.030;7.110;2023-06-10T02:00:26;100836.03;;;17.84;61.96
41654;BME280;68687;52.030;7.110;2023-06-10T02:02:51;100833.78;;;17.81;62.13
41654;BME280;68687;52.030;7.110;2023-06-10T02:05:16;100835.44;;;17.82;62.39
41654;BME280;68687;52.030;7.110;2023-06-10T02:07:42;100849.56;;;17.66;62.70
41654;BME280;68687;52.030;7.110;2023-06-10T02:10:07;100839.34;;;17.68;62.79
41654;BME280;68687;52.030;7.110;2023-06-10T02:12:33;100844.38;;;17.65;63.05
41654;BME280;68687;52.030;7.110;2023-06-10T02:14:59;100843.31;;;17.66;62.74
41654;BME280;68687;52.030;7.110;2023-06-10T02:17:24;100839.13;;;17.70;62.81
41654;BME280;68687;52.030;7.110;2023-06-10T02:19:49;100845.50;;;17.57;63.58
41654;BME280;68687;52.030;7.110;2023-06-10T02:22:19;100851.91;;;17.63;63.28
41654;BME280;68687;52.030;7.110;2023-06-10T02:24:44;100846.16;;;17.52;63.55
41654;BME280;68687;52.030;7.110;2023-06-10T02:27:09;100854.72;;;17.49;63.72
41654;BME280;68687;52.030;7.110;2023-06-10T02:29:34;100853.66;;;17.32;64.08
41654;BME280;68687;52.030;7.110;2023-06-10T02:32:01;100852.69;;;17.45;63.15
41654;BME280;68687;52.030;7.110;2023-06-10T02:34:27;100857.91;;;17.46;63.45
41654;BME280;68687;52.030;7.110;2023-06-10T02:36:52;100866.66;;;17.48;63.51
41654;BME280;68687;52.030;7.110;2023-06-10T02:39:17;100860.69;;;17.40;63.91
41654;BME280;68687;52.030;7.110;2023-06-10T02:41:43;100853.00;;;17.37;64.04
41654;BME280;68687;52.030;7.110;2023-06-10T02:44:08;100856.84;;;17.47;64.06
41654;BME280;68687;52.030;7.110;2023-06-10T02:46:33;100861.56;;;17.34;nan
41654;BME280;68687;52.030;7.110;2023-06-10T02:48:59;100857.44;;;17.31;64.44
41654;BME280;68687;52.030;7.110;2023-06-10T02:51:24;100857.19;;;17.08;65.38
41654;BME280;68687;52.030;7.110;2023-06-10T02:53:49;100854.19;;;17.16;64.56
41654;BME280;68687;52.030;7.110;2023-06-10T02:56:18;100850.66;;;17.15;65.29
41654;BME280;68687;52.030;7.110;2023-06-10T02:58:43;100849.66;;;17.10;65.60
41654;BME280;68687;52.030;7.110;2023-06-10T03:01:09;100850.72;;;17.09;65.80
41654;BME280;68687;52.030;7.110;2023-06-10T03:03:35;100846.50;;;17.13;65.63
41654;BME280;68687;52.030;7.110;2023-06-10T03:06:02;100849.38;;;17.18;65.12
41654;BME280;68687;52.030;7.110;2023-06-10T03:08:28;100846.34;;;17.08;65.28
41654;BME280;68687;52.030;7.110;2023-06-10T03:10:53;100852.22;;;17.05;66.26
41654;BME280;68687;52.030;7.110;2023-06-10T03:13:18;100848.09;;;16.95;65.99
41654;BME280;68687;52.030;7.110;2023-06-10T03:15:44;100860.22;;;16.93;66.74
41654;BME280;68687;52.030;7.110;2023-06-10T03:18:11;100856.66;;;16.92;65.94
41654;BME280;68687;52.030;7.110;2023-06-10T03:20:36;100856.06;;;16.90;66.43
41654;BME280;68687;52.030;7.110;2023-06-10T03:23:03;100861.25;;;16.92;66.13
41654;BME280;68687;52.030;7.110;2023-06-10T03:25:29;100862.75;;;16.88;66.63
41654;BME280;68687;52.030;7.110;2023-06-10T03:27:55;100866.97;;;16.84;67.18
41654;BME280;68687;52.030;7.110;2023-06-10T03:30:20;100862.59;;;16.83;67.08
41654;BME280;68687;52.030;7.110;2023-06-10T03:32:46;100860.72;;;16.83;67.42
41654;BME280;68687;52.030;7.110;2023-06-10T03:35:11;100872.44;;;16.77;67.88
41654;BME280;68687;52.030;7.110;2023-06-10T03:37:37;100868.44;;;16.80;68.25
41654;BME280;68687;52.030;7.110;2023-06-10T03:40:02;100876.41;;;16.75;67.84
41654;BME280;68687;52.030;7.110;2023-06-10T03:42:28;100876.41;;;16.75;67.77
41654;BME280;68687;52.030;7.110;2023-06-10T03:44:54;100885.81;;;16.72;68.37
41654;BME280;68687;52.030;7.110;2023-06-10T03:47:20;100879.50;;;16.78;67.57
41654;BME280;68687;52.030;7.110;2023-06-10T03:49:45;100888.22;;;16.87;67.05
41654;BME280;68687;52.030;7.110;2023-06-10T03:52:10;100883.28;;;16.77;68.17
41654;BME280;68687;52.030;7.110;2023-06-10T03:54:36;100882.00;;;16.80;67.23
41654;BME280;68687;52.030;7.110;2023-06-10T03:57:01;100884.09;;;16.78;68.26
41654;BME280;68687;52.030;7.110;2023-06-10T03:59:27;100883.63;;;16.87;67.55
41654;BME280;68687;52.030;7.110;2023-06-10T04:01:52;100879.34;;;16.73;68.50
41654;BME280;68687;52.030;7.110;2023-06-10T04:04:17;100875.16;;;16.71;68.67
41654;BME280;68687;52.030;7.110;2023-06-10T04:06:43;100876.97;;;16.83;67.98
41654;BME280;68687;52.030;7.110;2023-06-10T04:09:09;100883.63;;;16.87;67.67
41654;BME280;68687;52.030;7.110;2023-06-10T04:11:35;100891.16;;;16.85;67.45
41654;BME280;68687;52.030;7.110;2023-06-10T04:14:01;100888.25;;;16.80;68.33
41654;BME280;68687;52.030;7.110;2023-06-10T04:16:27;100887.38;;;16.86;67.46
41654;BME280;68687;52.030;7.110;2023-06-10T04:18:52;100881.53;;;16.89;68.07
41654;BME280;68687;52.030;7.110;2023-06-10T04:21:17;100883.66;;;16.81;68.25
41654;BME280;68687;52.030;7.110;2023-06-10T04:23:43;100887.78;;;16.90;67.55
41654;BME280;68687;52.030;7.110;2023-06-10T04:26:08;100897.56;;;16.91;67.46
41654;BME280;68687;52.030;7.110;2023-06-10T04:28:33;100886.28;;;16.94;67.97
41654;BME280;68687;52.030;7.110;2023-06-10T04:30:59;100888.56;;;16.97;67.76
41654;BME280;68687;52.030;7.110;2023-06-10T04:33:24;100890.03;;;16.99;67.62
41654;BME280;68687;52.030;7.110;2023-06-10T04:35:50;100899.09;;;17.12;67.13
41654;BME280;68687;52.030;7.110;2023-06-10T04:38:15;100893.06;;;17.10;67.21
41654;BME280;68687;52.030;7.110;2023-06-10T04:40:40;100893.44;;;17.13;67.34
41654;BME280;68687;52.030;7.110;2023-06-10T04:43:06;100892.19;;;17.16;66.52
41654;BME280;68687;52.030;7.110;2023-06-10T04:45:31;100895.41;;;17.31;66.49
41654;BME280;68687;52.030;7.110;2023-06-10T04:47:57;100898.34;;;17.29;66.75
41654;BME280;68687;52.030;7.110;2023-06-10T04:50:23;100898.44;;;17.41;65.88
41654;BME280;68687;52.030;7.110;2023-06-10T04:52:48;100894.91;;;17.41;66.41
41654;BME280;68687;52.030;7.110;2023-06-10T04:55:13;100899.50;;;17.40;65.70
41654;BME280;68687;52.030;7.110;2023-06-10T04:57:39;100894.88;;;17.66;65.21
41654;BME280;68687;52.030;7.110;2023-06-10T05:00:04;100901.34;;;17.71;65.04
41654;BME280;68687;52.030;7.110;2023-06-10T05:02:31;100896.28;;;17.75;64.81
41654;BME280;68687;52.030;7.110;2023-06-10T05:04:56;100891.25;;;17.97;63.92
41654;BME280;68687;52.030;7.110;2023-06-10T05:07:23;100890.13;;;18.04;64.25
41654;BME280;68687;52.030;7.110;2023-06-10T05:09:48;100900.31;;;18.27;63.09
41654;BME280;68687;52.030;7.110;2023-06-10T05:12:13;100893.97;;;18.33;62.64
41654;BME280;68687;52.030;7.110;2023-06-10T05:14:38;100892.25;;;18.39;62.71
41654;BME280;68687;52.030;7.110;2023-06-10T05:17:04;100895.47;;;18.47;61.65
41654;BME280;68687;52.030;7.110;2023-06-10T05:19:31;100891.94;;;18.65;61.45
41654;BME280;68687;52.030;7.110;2023-06-10T05:21:57;100897.75;;;18.80;60.94
41654;BME280;68687;52.030;7.110;2023-06-10T05:24:22;100880.69;;;19.03;60.35
41654;BME280;68687;52.030;7.110;2023-06-10T05:26:48;100889.69;;;19.04;59.76
41654;BME280;68687;52.030;7.110;2023-06-10T05:29:14;100891.22;;;19.11;59.79
41654;BME280;68687;52.030;7.110;2023-06-10T05:31:40;100886.72;;;19.17;59.16
41654;BME280;68687;52.030;7.110;2023-06-10T05:34:06;100884.94;;;19.11;58.36
41654;BME280;68687;52.030;7.110;2023-06-10T05:36:31;100892.97;;;19.59;57.69
41654;BME280;68687;52.030;7.110;2023-06-10T05:38:57;100891.16;;;19.41;58.00
41654;BME280;68687;52.030;7.110;2023-06-10T05:41:22;100893.44;;;19.68;57.65
41654;BME280;68687;52.030;7.110;2023-06-10T05:43:47;100899.97;;;19.90;56.99
41654;BME280;68687;52.030;7.110;2023-06-10T05:46:13;100901.47;;;20.10;56.15
41654;BME280;68687;52.030;7.110;2023-06-10T05:48:38;100897.97;;;20.49;55.26
41654;BME280;68687;52.030;7.110;2023-06-10T05:51:03;100901.84;;;20.53;55.72
41654;BME280;68687;52.030;7.110;2023-06-10T05:53:29;100900.97;;;20.24;54.48
41654;BME280;68687;52.030;7.110;2023-06-10T05:55:55;100911.16;;;20.41;54.23
41654;BME280;68687;52.030;7.110;2023-06-10T05:58:23;100906.03;;;20.44;54.28
41654;BME280;68687;52.030;7.110;2023-06-10T06:00:48;100907.31;;;20.53;53.87
41654;BME280;68687;52.030;7.110;2023-06-10T06:03:13;100909.69;;;21.07;52.63
41654;BME280;68687;52.030;7.110;2023-06-10T06:05:38;100905.78;;;21.03;52.61
41654;BME280;68687;52.030;7.110;2023-06-10T06:08:04;100910.25;;;20.92;51.24
41654;BME280;68687;52.030;7.110;2023-06-10T06:10:30;100907.44;;;21.04;50.94
41654;BME280;68687;52.030;7.110;2023-06-10T06:12:55;100904.88;;;21.25;51.09
41654;BME280;68687;52.030;7.110;2023-06-10T06:15:20;100909.78;;;21.12;50.42
41654;BME280;68687;52.030;7.110;2023-06-10T06:17:46;100911.75;;;21.45;50.66
41654;BME280;68687;52.030;7.110;2023-06-10T06:20:11;100908.25;;;21.66;49.93
41654;BME280;68687;52.030;7.110;2023-06-10T06:22:37;100907.06;;;21.79;47.40
41654;BME280;68687;52.030;7.110;2023-06-10T06:25:02;100901.09;;;21.99;47.19
41654;BME280;68687;52.030;7.110;2023-06-10T06:27:28;100911.06;;;22.27;47.66
41654;BME280;68687;52.030;7.110;2023-06-10T06:29:53;100901.94;;;22.43;47.60
41654;BME280;68687;52.030;7.110;2023-06-10T06:32:18;100905.91;;;22.52;46.23
41654;BME280;68687;52.030;7.110;2023-06-10T06:34:44;100904.69;;;22.43;45.86
41654;BME280;68687;52.030;7.110;2023-06-10T06:37:09;100908.63;;;22.30;45.62
41654;BME280;68687;52.030;7.110;2023-06-10T06:39:34;100902.50;;;22.45;44.79
41654;BME280;68687;52.030;7.110;2023-06-10T06:42:00;100914.78;;;22.64;45.43
41654;BME280;68687;52.030;7.110;2023-06-10T06:44:25;100900.41;;;22.74;44.43
41654;BME280;68687;52.030;7.110;2023-06-10T06:46:50;100915.16;;;22.73;44.46
41654;BME280;68687;52.030;7.110;2023-06-10T06:49:15;100914.47;;;22.83;44.94
41654;BME280;68687;52.030;7.110;2023-06-10T06:51:41;100917.31;;;22.93;43.18
41654;BME280;68687;52.030;7.110;2023-06-10T06:54:06;100909.63;;;22.68;43.42
41654;BME280;68687;52.030;7.110;2023-06-10T06:56:31;100918.31;;;23.40;42.39
41654;BME280;68687;52.030;7.110;2023-06-10T06:58:57;100917.84;;;23.22;41.61
41654;BME280;68687;52.030;7.110;2023-06-10T07:01:22;100910.13;;;22.87;42.82
41654;BME280;68687;52.030;7.110;2023-06-10T07:03:47;100921.44;;;22.95;42.25
41654;BME280;68687;52.030;7.110;2023-06-10T07:06:13;100918.88;;;22.84;42.08
41654;BME280;68687;52.030;7.110;2023-06-10T07:08:38;100929.47;;;22.80;42.61
41654;BME280;68687;52.030;7.110;2023-06-10T07:11:03;100921.25;;;22.80;42.11
41654;BME280;68687;52.030;7.110;2023-06-10T07:13:29;100914.03;;;23.55;41.77
41654;BME280;68687;52.030;7.110;2023-06-10T07:15:54;100917.84;;;23.54;39.74
41654;BME280;68687;52.030;7.110;2023-06-10T07:18:19;100925.13;;;23.70;40.54
41654;BME280;68687;52.030;7.110;2023-06-10T07:20:45;100927.75;;;23.92;39.23
41654;BME280;68687;52.030;7.110;2023-06-10T07:23:10;100930.72;;;23.53;39.18
41654;BME280;68687;52.030;7.110;2023-06-10T07:25:35;100941.28;;;23.66;38.57
41654;BME280;68687;52.030;7.110;2023-06-10T07:28:00;100937.34;;;23.89;38.08
41654;BME280;68687;52.030;7.110;2023-06-10T07:30:26;100936.97;;;24.18;39.54
41654;BME280;68687;52.030;7.110;2023-06-10T07:32:51;100924.81;;;24.09;37.77
41654;BME280;68687;52.030;7.110;2023-06-10T07:35:17;100928.00;;;24.38;38.99
41654;BME280;68687;52.030;7.110;2023-06-10T07:37:42;100917.09;;;24.43;37.54
41654;BME280;68687;52.030;7.110;2023-06-10T07:40:08;100931.47;;;24.90;37.05
41654;BME280;68687;52.030;7.110;2023-06-10T07:42:35;100922.41;;;24.80;37.84
41654;BME280;68687;52.030;7.110;2023-06-10T07:45:01;100916.72;;;25.07;37.29
41654;BME280;68687;52.030;7.110;2023-06-10T07:47:26;100931.31;;;25.27;36.82
41654;BME280;68687;52.030;7.110;2023-06-10T07:49:51;100932.53;;;24.69;37.74
41654;BME280;68687;52.030;7.110;2023-06-10T07:52:16;100930.31;;;24.61;37.51
41654;BME280;68687;52.030;7.110;2023-06-10T07:54:42;100925.53;;;25.44;36.78
41654;BME280;68687;52.030;7.110;2023-06-10T07:57:07;100927.47;;;25.39;36.98
41654;BME280;68687;52.030;7.110;2023-06-10T07:59:33;100928.00;;;25.05;37.09
41654;BME280;68687;52.030;7.110;2023-06-10T08:01:58;100927.72;;;25.17;36.78
41654;BME280;68687;52.030;7.110;2023-06-10T08:04:23;100932.72;;;25.76;36.91
41654;BME280;68687;52.030;7.110;2023-06-10T08:06:49;100928.44;;;26.24;36.03
41654;BME280;68687;52.030;7.110;2023-06-10T08:09:14;100945.25;;;26.23;35.25
41654;BME280;68687;52.030;7.110;2023-06-10T08:11:39;100923.06;;;25.27;36.26
41654;BME280;68687;52.030;7.110;2023-06-10T08:14:05;100937.03;;;25.97;35.62
41654;BME280;68687;52.030;7.110;2023-06-10T08:16:30;100940.28;;;26.25;35.53
41654;BME280;68687;52.030;7.110;2023-06-10T08:18:55;100934.03;;;25.94;35.26
41654;BME280;68687;52.030;7.110;2023-06-10T08:21:21;100936.41;;;26.41;35.30
41654;BME280;68687;52.030;7.110;2023-06-10T08:23:46;100930.91;;;26.31;35.11
41654;BME280;68687;52.030;7.110;2023-06-10T08:26:11;100935.28;;;26.47;35.36
41654;BME280;68687;52.030;7.110;2023-06-10T08:28:36;100926.00;;;26.82;34.43
41654;BME280;68687;52.030;7.110;2023-06-10T08:31:02;100937.69;;;26.64;34.70
41654;BME280;68687;52.030;7.110;2023-06-10T08:33:27;100930.84;;;26.51;33.94
41654;BME280;68687;52.030;7.110;2023-06-10T08:35:52;100930.84;;;26.51;34.29
41654;BME280;68687;52.030;7.110;2023-06-10T08:38:17;100935.75;;;26.64;33.40
41654;BME280;68687;52.030;7.110;2023-06-10T08:40:43;100931.63;;;26.57;33.89
41654;BME280;68687;52.030;7.110;2023-06-10T08:43:34;100934.72;;;27.44;33.95
41654;BME280;68687;52.030;7.110;2023-06-10T08:46:02;100922.63;;;27.74;33.15
41654;BME280;68687;52.030;7.110;2023-06-10T08:48:30;100922.88;;;27.43;33.08
41654;BME280;68687;52.030;7.110;2023-06-10T08:51:00;100917.44;;;26.89;33.04
41654;BME280;68687;52.030;7.110;2023-06-10T08:53:29;100923.94;;;27.08;33.90
41654;BME280;68687;52.030;7.110;2023-06-10T08:55:58;100922.84;;;27.77;32.88
41654;BME280;68687;52.030;7.110;2023-06-10T08:58:26;100917.22;;;27.87;32.98
41654;BME280;68687;52.030;7.110;2023-06-10T09:00:52;100915.56;;;27.86;32.57
41654;BME280;68687;52.030;7.110;2023-06-10T09:03:17;100921.34;;;27.56;33.11
41654;BME280;68687;52.030;7.110;2023-06-10T09:05:43;100914.91;;;27.99;33.03
41654;BME280;68687;52.030;7.110;2023-06-10T09:08:09;100926.78;;;27.66;32.05
41654;BME280;68687;52.030;7.110;2023-06-10T09:10:34;100923.63;;;27.15;33.15
41654;BME280;68687;52.030;7.110;2023-06-10T09:13:00;100912.19;;;28.18;32.87
41654;BME280;68687;52.030;7.110;2023-06-10T09:15:25;100919.34;;;28.19;31.32
41654;BME280;68687;52.030;7.110;2023-06-10T09:17:50;100924.16;;;27.51;32.17
41654;BME280;68687;52.030;7.110;2023-06-10T09:20:16;100915.31;;;27.54;32.61
41654;BME280;68687;52.030;7.110;2023-06-10T09:22:42;100920.22;;;27.28;32.34
41654;BME280;68687;52.030;7.110;2023-06-10T09:25:09;100917.19;;;27.63;33.00
41654;BME280;68687;52.030;7.110;2023-06-10T09:27:48;100916.66;;;27.56;32.88
41654;BME280;68687;52.030;7.110;2023-06-10T09:30:32;100911.34;;;28.18;31.67
41654;BME280;68687;52.030;7.110;2023-06-10T09:32:59;100909.81;;;28.36;31.41
41654;BME280;68687;52.030;7.110;2023-06-10T09:35:25;100915.47;;;28.20;31.57
41654;BME280;68687;52.030;7.110;2023-06-10T09:37:56;100913.50;;;28.50;31.57
41654;BME280;68687;52.030;7.110;2023-06-10T09:40:21;100918.78;;;28.22;31.10
41654;BME280;68687;52.030;7.110;2023-06-10T09:42:59;100919.22;;;27.82;31.94
41654;BME280;68687;52.030;7.110;2023-06-10T09:45:30;100910.81;;;28.16;32.14
41654;BME280;68687;52.030;7.110;2023-06-10T09:47:59;100911.72;;;28.59;31.57
41654;BME280;68687;52.030;7.110;2023-06-10T09:50:24;100918.47;;;28.24;31.91
41654;BME280;68687;52.030;7.110;2023-06-10T09:52:50;100907.47;;;28.19;31.87
41654;BME280;68687;52.030;7.110;2023-06-10T09:55:17;100913.06;;;28.14;31.66
41654;BME280;68687;52.030;7.110;2023-06-10T09:57:43;100911.66;;;28.40;30.59
41654;BME280;68687;52.030;7.110;2023-06-10T10:00:14;100910.69;;;29.11;30.25
41654;BME280;68687;52.030;7.110;2023-06-10T10:02:50;100914.63;;;28.25;31.10
41654;BME280;68687;52.030;7.110;2023-06-10T10:05:17;100918.59;;;29.18;30.18
41654;BME280;68687;52.030;7.110;2023-06-10T10:07:43;100919.94;;;29.02;30.27
41654;BME280;68687;52.030;7.110;2023-06-10T10:10:10;100916.78;;;28.52;30.13
41654;BME280;68687;52.030;7.110;2023-06-10T10:12:37;100909.00;;;29.29;30.03
41654;BME280;68687;52.030;7.110;2023-06-10T10:15:03;100911.56;;;29.44;29.49
41654;BME280;68687;52.030;7.110;2023-06-10T10:17:31;100910.81;;;28.82;29.33
41654;BME280;68687;52.030;7.110;2023-06-10T10:20:03;100907.69;;;28.27;30.35
41654;BME280;68687;52.030;7.110;2023-06-10T10:22:33;100905.59;;;28.81;30.20
41654;BME280;68687;52.030;7.110;2023-06-10T10:25:02;100906.38;;;28.86;29.95
41654;BME280;68687;52.030;7.110;2023-06-10T10:28:11;100908.38;;;29.18;29.50
41654;BME280;68687;52.030;7.110;2023-06-10T10:30:42;100909.13;;;29.57;29.17
41654;BME280;68687;52.030;7.110;2023-06-10T10:33:19;100907.31;;;29.79;28.61
41654;BME280;68687;52.030;7.110;2023-06-10T10:35:46;100900.69;;;28.97;29.70
41654;BME280;68687;52.030;7.110;2023-06-10T10:38:11;100902.50;;;29.39;29.05
41654;BME280;68687;52.030;7.110;2023-06-10T10:40:37;100905.56;;;29.05;29.40
41654;BME280;68687;52.030;7.110;2023-06-10T10:43:03;100896.88;;;29.63;29.22
41654;BME280;68687;52.030;7.110;2023-06-10T10:45:29;100893.00;;;29.12;29.54
41654;BME280;68687;52.030;7.110;2023-06-10T10:47:55;100898.50;;;29.64;29.03
41654;BME280;68687;52.030;7.110;2023-06-10T10:50:21;100906.22;;;29.94;28.01
41654;BME280;68687;52.030;7.110;2023-06-10T10:52:56;100890.75;;;29.14;29.63
41654;BME280;68687;52.030;7.110;2023-06-10T10:55:23;100898.72;;;29.81;29.49
41654;BME280;68687;52.030;7.110;2023-06-10T10:57:55;100899.53;;;29.68;28.88
41654;BME280;68687;52.030;7.110;2023-06-10T11:00:31;100893.81;;;29.92;27.94
41654;BME280;68687;52.030;7.110;2023-06-10T11:02:59;100888.59;;;29.44;29.04
41654;BME280;68687;52.030;7.110;2023-06-10T11:05:36;100889.28;;;29.68;28.97
41654;BME280;68687;52.030;7.110;2023-06-10T11:08:02;100886.25;;;29.00;28.99
41654;BME280;68687;52.030;7.110;2023-06-10T11:10:32;100888.69;;;29.39;27.77
41654;BME280;68687;52.030;7.110;2023-06-10T11:12:58;100891.53;;;29.66;28.49
41654;BME280;68687;52.030;7.110;2023-06-10T11:15:25;100884.19;;;29.43;28.94
41654;BME280;68687;52.030;7.110;2023-06-10T11:20:43;100886.75;;;29.99;27.79
41654;BME280;68687;52.030;7.110;2023-06-10T11:23:08;100874.97;;;29.15;27.94
41654;BME280;68687;52.030;7.110;2023-06-10T11:25:40;100880.91;;;29.08;29.22
41654;BME280;68687;52.030;7.110;2023-06-10T11:28:18;100874.88;;;30.26;28.08
41654;BME280;68687;52.030;7.110;2023-06-10T11:30:44;100874.84;;;29.71;28.79
41654;BME280;68687;52.030;7.110;2023-06-10T11:33:14;100876.63;;;30.22;27.46
41654;BME280;68687;52.030;7.110;2023-06-10T11:35:40;100877.53;;;30.04;27.95
41654;BME280;68687;52.030;7.110;2023-06-10T11:38:05;100868.00;;;30.10;27.25
41654;BME280;68687;52.030;7.110;2023-06-10T11:40:31;100881.13;;;29.91;26.66
41654;BME280;68687;52.030;7.110;2023-06-10T11:42:57;100867.69;;;29.38;27.43
41654;BME280;68687;52.030;7.110;2023-06-10T11:45:23;100877.88;;;30.16;27.17
41654;BME280;68687;52.030;7.110;2023-06-10T11:47:58;100873.72;;;29.40;27.85
41654;BME280;68687;52.030;7.110;2023-06-10T11:50:31;100869.59;;;29.83;28.05
41654;BME280;68687;52.030;7.110;2023-06-10T11:52:56;100867.97;;;29.82;27.54
41654;BME280;68687;52.030;7.110;2023-06-10T11:55:23;100871.03;;;29.81;27.66
41654;BME280;68687;52.030;7.110;2023-06-10T11:57:48;100870.97;;;29.40;28.47
41654;BME280;68687;52.030;7.110;2023-06-10T12:00:22;100861.06;;;29.20;28.17
41654;BME280;68687;52.030;7.110;2023-06-10T12:02:55;100864.91;;;28.68;28.94
41654;BME280;68687;52.030;7.110;2023-06-10T12:05:22;100866.38;;;29.16;28.90
41654;BME280;68687;52.030;7.110;2023-06-10T12:07:47;100867.22;;;28.60;28.82
41654;BME280;68687;52.030;7.110;2023-06-10T12:10:13;100858.34;;;28.63;28.84
41654;BME280;68687;52.030;7.110;2023-06-10T12:12:38;100862.75;;;28.83;29.97
41654;BME280;68687;52.030;7.110;2023-06-10T12:15:04;100859.88;;;28.32;30.09
41654;BME280;68687;52.030;7.110;2023-06-10T12:19:56;100841.31;;;28.56;30.03
41654;BME280;68687;52.030;7.110;2023-06-10T12:22:21;100849.59;;;28.38;29.85
41654;BME280;68687;52.030;7.110;2023-06-10T12:27:24;100830.44;;;28.22;30.07
41654;BME280;68687;52.030;7.110;2023-06-10T12:29:53;100824.75;;;28.14;30.71
41654;BME280;68687;52.030;7.110;2023-06-10T12:32:34;100840.09;;;28.25;30.71
41654;BME280;68687;52.030;7.110;2023-06-10T12:35:04;100834.00;;;28.28;30.57
41654;BME280;68687;52.030;7.110;2023-06-10T12:37:29;100837.41;;;27.96;30.65
41654;BME280;68687;52.030;7.110;2023-06-10T12:39:55;100832.34;;;28.27;31.38
41654;BME280;68687;52.030;7.110;2023-06-10T12:42:22;100837.56;;;28.28;30.38
41654;BME280;68687;52.030;7.110;2023-06-10T12:44:53;100829.63;;;28.22;30.42
41654;BME280;68687;52.030;7.110;2023-06-10T12:47:18;100845.03;;;28.28;30.35
41654;BME280;68687;52.030;7.110;2023-06-10T12:49:44;100839.06;;;28.16;30.18
41654;BME280;68687;52.030;7.110;2023-06-10T12:52:09;100835.41;;;28.25;30.58
41654;BME280;68687;52.030;7.110;2023-06-10T12:54:34;100841.59;;;28.36;29.95
41654;BME280;68687;52.030;7.110;2023-06-10T12:57:00;100834.44;;;28.35;30.07
41654;BME280;68687;52.030;7.110;2023-06-10T12:59:26;100825.75;;;28.23;29.83